createdAt,value
2023-03-26T00:02:05.969Z,2.13
2023-03-26T00:04:34.685Z,1.60
2023-03-26T00:07:05.125Z,2.00
2023-03-26T00:09:33.092Z,1.90
2023-03-26T00:12:01.194Z,1.93
2023-03-26T00:14:30.395Z,2.77
2023-03-26T00:16:58.597Z,2.40
2023-03-26T00:19:27.900Z,1.80
2023-03-26T00:21:57.765Z,1.80
2023-03-26T00:24:29.615Z,2.17
2023-03-26T00:26:57.755Z,1.80
2023-03-26T00:29:28.047Z,1.63
2023-03-26T00:31:56.186Z,1.70
2023-03-26T00:34:24.784Z,2.97
2023-03-26T00:36:54.497Z,3.60
2023-03-26T00:39:23.747Z,2.23
2023-03-26T00:41:54.453Z,2.60
2023-03-26T00:44:22.929Z,2.10
2023-03-26T00:46:51.214Z,2.27
2023-03-26T00:49:19.110Z,1.90
2023-03-26T00:51:47.326Z,2.20
2023-03-26T00:54:15.712Z,2.10
2023-03-26T00:56:44.139Z,1.80
2023-03-26T00:59:13.432Z,3.30
2023-03-26T01:01:41.916Z,1.93
2023-03-26T01:04:28.108Z,2.60
2023-03-26T01:06:59.647Z,2.07
2023-03-26T01:09:35.746Z,2.10
2023-03-26T01:12:06.792Z,2.00
2023-03-26T01:14:36.566Z,1.97
2023-03-26T01:17:07.962Z,3.40
2023-03-26T01:19:44.750Z,3.00
2023-03-26T01:22:18.081Z,3.20
2023-03-26T01:24:53.153Z,2.53
2023-03-26T01:27:32.133Z,2.33
2023-03-26T01:30:06.786Z,1.80
2023-03-26T01:32:59.565Z,1.80
2023-03-26T01:35:38.547Z,2.10
2023-03-26T01:38:18.799Z,1.30
2023-03-26T01:40:53.393Z,1.83
2023-03-26T01:43:32.599Z,1.77
2023-03-26T01:46:03.760Z,1.40
2023-03-26T01:48:34.659Z,2.00
2023-03-26T01:51:02.764Z,1.63
2023-03-26T01:53:31.733Z,1.30
2023-03-26T01:56:13.307Z,2.17
2023-03-26T01:58:53.194Z,2.33
2023-03-26T02:01:30.270Z,3.13
2023-03-26T02:04:07.418Z,1.67
2023-03-26T02:06:45.179Z,1.50
2023-03-26T02:09:18.706Z,1.83
2023-03-26T02:11:49.086Z,1.57
2023-03-26T02:14:17.837Z,1.63
2023-03-26T02:16:47.954Z,1.60
2023-03-26T02:19:21.522Z,2.30
2023-03-26T02:21:51.472Z,1.57
2023-03-26T02:24:20.902Z,1.53
2023-03-26T02:26:53.356Z,2.00
2023-03-26T02:29:22.215Z,1.40
2023-03-26T02:31:51.169Z,1.70
2023-03-26T02:34:19.323Z,1.80
2023-03-26T02:36:51.815Z,1.47
2023-03-26T02:39:20.970Z,1.63
2023-03-26T02:42:05.334Z,2.23
2023-03-26T02:44:40.725Z,1.73
2023-03-26T02:47:20.909Z,1.70
2023-03-26T02:49:54.723Z,1.87
2023-03-26T02:52:54.387Z,1.83
2023-03-26T02:55:22.609Z,1.67
2023-03-26T02:57:54.180Z,1.93
2023-03-26T03:00:29.053Z,1.60
2023-03-26T03:03:17.156Z,1.93
2023-03-26T03:06:09.056Z,2.00
2023-03-26T03:09:04.970Z,1.70
2023-03-26T03:11:33.740Z,1.43
2023-03-26T03:14:03.363Z,1.57
2023-03-26T03:16:34.111Z,1.53
2023-03-26T03:19:10.691Z,1.53
2023-03-26T03:21:40.537Z,1.60
2023-03-26T03:24:11.699Z,2.37
2023-03-26T03:26:47.932Z,1.50
2023-03-26T03:29:47.169Z,1.73
2023-03-26T03:32:33.435Z,1.93
2023-03-26T03:35:05.355Z,1.50
2023-03-26T03:37:33.369Z,2.40
2023-03-26T03:40:01.842Z,1.70
2023-03-26T03:42:33.405Z,1.80
2023-03-26T03:45:07.278Z,1.60
2023-03-26T03:47:57.233Z,1.57
2023-03-26T03:50:36.678Z,1.77
2023-03-26T03:53:25.908Z,1.30
2023-03-26T03:55:57.434Z,1.53
2023-03-26T03:58:36.675Z,1.97
2023-03-26T04:01:15.217Z,1.70
2023-03-26T04:03:58.127Z,1.67
2023-03-26T04:06:36.809Z,1.50
2023-03-26T04:09:05.157Z,1.43
2023-03-26T04:11:33.427Z,1.63
2023-03-26T04:14:21.671Z,1.50
2023-03-26T04:16:59.980Z,1.80
2023-03-26T04:19:30.382Z,1.80
2023-03-26T04:22:02.700Z,1.70
2023-03-26T04:24:38.300Z,1.80
2023-03-26T04:27:32.463Z,1.67
2023-03-26T04:30:20.671Z,1.30
2023-03-26T04:32:58.466Z,1.40
2023-03-26T04:35:30.380Z,1.87
2023-03-26T04:37:58.454Z,1.50
2023-03-26T04:40:31.558Z,1.77
2023-03-26T04:42:59.892Z,1.23
2023-03-26T04:45:56.587Z,1.43
2023-03-26T04:48:28.596Z,2.03
2023-03-26T04:50:57.178Z,1.33
2023-03-26T04:53:26.310Z,1.67
2023-03-26T04:56:26.815Z,1.47
2023-03-26T04:59:18.599Z,1.57
2023-03-26T05:01:47.157Z,1.77
2023-03-26T05:04:18.623Z,1.57
2023-03-26T05:06:46.991Z,1.50
2023-03-26T05:09:27.948Z,1.43
2023-03-26T05:12:14.393Z,1.20
2023-03-26T05:15:00.262Z,1.27
2023-03-26T05:17:48.599Z,1.30
2023-03-26T05:20:31.215Z,1.53
2023-03-26T05:23:00.101Z,1.20
2023-03-26T05:25:31.537Z,1.30
2023-03-26T05:28:01.495Z,0.97
2023-03-26T05:30:47.916Z,1.40
2023-03-26T05:33:17.786Z,3.73
2023-03-26T05:36:02.265Z,2.67
2023-03-26T05:38:32.383Z,1.93
2023-03-26T05:41:03.547Z,1.90
2023-03-26T05:43:32.396Z,1.80
2023-03-26T05:46:16.608Z,1.80
2023-03-26T05:48:45.290Z,1.60
2023-03-26T05:51:16.524Z,1.60
2023-03-26T05:53:52.500Z,1.50
2023-03-26T05:56:43.608Z,1.60
2023-03-26T05:59:30.323Z,1.83
2023-03-26T06:02:18.774Z,1.17
2023-03-26T06:05:12.543Z,1.50
2023-03-26T06:08:09.657Z,1.70
2023-03-26T06:10:40.007Z,1.23
2023-03-26T06:13:08.578Z,1.57
2023-03-26T06:15:40.407Z,1.23
2023-03-26T06:18:17.840Z,1.13
2023-03-26T06:21:05.436Z,1.53
2023-03-26T06:23:50.032Z,2.97
2023-03-26T06:26:37.145Z,2.97
2023-03-26T06:29:23.216Z,4.30
2023-03-26T06:31:51.141Z,5.50
2023-03-26T06:34:22.816Z,4.30
2023-03-26T06:36:52.576Z,3.47
2023-03-26T06:39:23.392Z,2.80
2023-03-26T06:42:20.849Z,2.70
2023-03-26T06:45:33.505Z,2.77
2023-03-26T06:48:20.001Z,2.23
2023-03-26T06:51:11.807Z,2.30
2023-03-26T06:53:59.680Z,2.40
2023-03-26T06:57:01.089Z,1.93
2023-03-26T06:59:51.069Z,1.97
2023-03-26T07:02:37.688Z,1.80
2023-03-26T07:05:24.998Z,2.00
2023-03-26T07:08:31.946Z,1.73
2023-03-26T07:11:35.229Z,2.03
2023-03-26T07:14:33.382Z,2.30
2023-03-26T07:17:10.943Z,2.00
2023-03-26T07:19:54.290Z,1.90
2023-03-26T07:22:26.791Z,1.87
2023-03-26T07:25:15.645Z,2.20
2023-03-26T07:28:13.320Z,2.13
2023-03-26T07:31:28.052Z,1.77
2023-03-26T07:34:24.320Z,1.80
2023-03-26T07:37:31.062Z,1.93
2023-03-26T07:40:47.103Z,1.67
2023-03-26T07:44:17.144Z,2.60
2023-03-26T07:47:18.360Z,2.13
2023-03-26T07:50:07.740Z,2.40
2023-03-26T07:52:53.587Z,2.50
2023-03-26T07:55:34.428Z,2.20
2023-03-26T07:58:47.440Z,2.30
2023-03-26T08:01:46.917Z,1.83
2023-03-26T08:04:36.951Z,1.63
2023-03-26T08:07:35.915Z,2.17
2023-03-26T08:10:28.399Z,3.00
2023-03-26T08:13:17.376Z,2.00
2023-03-26T08:15:53.678Z,2.77
2023-03-26T08:18:39.135Z,3.27
2023-03-26T08:21:13.892Z,2.43
2023-03-26T08:23:57.688Z,1.53
2023-03-26T08:26:32.148Z,1.37
2023-03-26T08:29:11.318Z,1.40
2023-03-26T08:31:42.212Z,1.50
2023-03-26T08:34:13.474Z,1.30
2023-03-26T08:36:43.075Z,1.23
2023-03-26T08:39:11.955Z,1.20
2023-03-26T08:42:14.695Z,1.10
2023-03-26T08:45:28.699Z,1.07
2023-03-26T08:48:37.800Z,1.30
2023-03-26T08:51:41.599Z,0.80
2023-03-26T08:54:39.539Z,1.10
2023-03-26T08:57:30.524Z,0.80
2023-03-26T09:00:43.616Z,0.70
2023-03-26T09:03:41.226Z,0.90
2023-03-26T09:06:38.718Z,0.70
2023-03-26T09:09:40.449Z,0.83
2023-03-26T09:12:37.174Z,0.73
2023-03-26T09:15:28.580Z,0.70
2023-03-26T09:18:51.871Z,0.60
2023-03-26T09:21:39.654Z,0.60
2023-03-26T09:24:36.883Z,0.43
2023-03-26T09:27:31.316Z,0.60
2023-03-26T09:30:22.463Z,0.30
2023-03-26T09:33:11.706Z,0.47
2023-03-26T09:35:54.667Z,0.40
2023-03-26T09:38:44.528Z,2.00
2023-03-26T09:41:17.870Z,1.10
2023-03-26T09:44:26.106Z,1.13
2023-03-26T09:47:23.170Z,0.60
2023-03-26T09:49:55.303Z,0.50
2023-03-26T09:52:51.110Z,0.67
2023-03-26T09:55:34.451Z,0.50
2023-03-26T09:58:16.866Z,0.70
2023-03-26T10:00:50.520Z,0.60
2023-03-26T10:03:31.169Z,0.60
2023-03-26T10:06:23.792Z,0.80
2023-03-26T10:09:11.382Z,0.70
2023-03-26T10:11:57.299Z,0.50
2023-03-26T10:14:33.603Z,0.40
2023-03-26T10:17:15.428Z,0.60
2023-03-26T10:19:58.232Z,0.60
2023-03-26T10:22:39.487Z,1.00
2023-03-26T10:25:23.391Z,0.90
2023-03-26T10:28:05.751Z,0.70
2023-03-26T10:30:56.653Z,0.90
2023-03-26T10:33:32.387Z,1.30
2023-03-26T10:36:29.871Z,0.93
2023-03-26T10:39:35.980Z,1.07
2023-03-26T10:42:16.945Z,1.20
2023-03-26T10:45:11.155Z,1.23
2023-03-26T10:47:55.686Z,1.13
2023-03-26T10:50:50.781Z,0.80
2023-03-26T10:53:33.159Z,1.00
2023-03-26T10:56:10.752Z,0.97
2023-03-26T10:58:48.366Z,0.93
2023-03-26T11:01:25.541Z,1.53
2023-03-26T11:03:56.582Z,1.10
2023-03-26T11:06:38.735Z,1.00
2023-03-26T11:09:18.621Z,1.00
2023-03-26T11:11:54.828Z,0.70
2023-03-26T11:14:34.844Z,0.80
2023-03-26T11:17:40.841Z,0.83
2023-03-26T11:20:10.906Z,0.70
2023-03-26T11:22:51.642Z,0.80
2023-03-26T11:25:31.230Z,0.60
2023-03-26T11:28:17.936Z,0.60
2023-03-26T11:30:53.577Z,0.70
2023-03-26T11:33:25.928Z,0.70
2023-03-26T11:36:06.407Z,1.03
2023-03-26T11:38:38.530Z,0.50
2023-03-26T11:41:16.706Z,0.83
2023-03-26T11:44:05.419Z,0.70
2023-03-26T11:46:44.406Z,0.80
2023-03-26T11:49:15.556Z,0.63
2023-03-26T11:51:44.990Z,0.77
2023-03-26T11:54:14.703Z,0.83
2023-03-26T11:57:06.088Z,1.00
2023-03-26T11:59:53.324Z,0.93
2023-03-26T12:02:32.671Z,1.00
2023-03-26T12:05:20.447Z,0.80
2023-03-26T12:07:54.204Z,0.77
2023-03-26T12:10:28.053Z,0.77
2023-03-26T12:13:01.234Z,0.73
2023-03-26T12:15:31.571Z,0.90
2023-03-26T12:18:18.492Z,0.90
2023-03-26T12:20:46.538Z,0.73
2023-03-26T12:23:38.750Z,0.60
2023-03-26T12:26:15.423Z,0.40
2023-03-26T12:28:50.128Z,0.47
2023-03-26T12:31:20.139Z,0.80
2023-03-26T12:34:06.237Z,0.30
2023-03-26T12:36:35.790Z,0.40
2023-03-26T12:40:10.039Z,0.60
2023-03-26T12:44:50.583Z,0.50
2023-03-26T12:45:22.374Z,0.50
2023-03-26T12:48:01.145Z,0.50
2023-03-26T12:50:47.492Z,0.60
2023-03-26T12:53:33.829Z,0.57
2023-03-26T12:56:13.465Z,0.80
2023-03-26T12:59:01.730Z,0.60
2023-03-26T13:01:41.756Z,0.40
2023-03-26T13:04:27.519Z,1.00
2023-03-26T13:07:00.567Z,0.53
2023-03-26T13:09:43.561Z,0.30
2023-03-26T13:12:24.395Z,0.30
2023-03-26T13:15:17.775Z,0.23
2023-03-26T13:18:04.196Z,0.40
2023-03-26T13:20:45.482Z,0.17
2023-03-26T13:23:23.303Z,0.20
2023-03-26T13:26:02.134Z,0.20
2023-03-26T13:28:40.383Z,1.73
2023-03-26T13:31:14.910Z,0.73
2023-03-26T13:33:53.728Z,0.40
2023-03-26T13:36:27.257Z,0.20
2023-03-26T13:39:09.994Z,0.20
2023-03-26T13:41:52.486Z,0.20
2023-03-26T13:44:33.147Z,0.20
2023-03-26T13:47:06.006Z,0.20
2023-03-26T13:49:41.892Z,0.27
2023-03-26T13:52:14.375Z,0.20
2023-03-26T13:54:46.672Z,0.20
2023-03-26T13:57:22.317Z,0.23
2023-03-26T13:59:57.326Z,0.20
2023-03-26T14:02:32.192Z,0.13
2023-03-26T14:05:08.007Z,0.17
2023-03-26T14:07:41.702Z,0.20
2023-03-26T14:10:14.042Z,0.20
2023-03-26T14:12:51.439Z,0.17
2023-03-26T14:15:27.608Z,0.17
2023-03-26T14:18:06.195Z,0.20
2023-03-26T14:21:02.232Z,0.20
2023-03-26T14:23:49.944Z,0.20
2023-03-26T14:26:32.775Z,0.20
2023-03-26T14:29:32.617Z,0.20
2023-03-26T14:32:24.307Z,0.20
2023-03-26T14:35:05.931Z,0.23
2023-03-26T14:37:53.769Z,0.27
2023-03-26T14:40:49.047Z,0.50
2023-03-26T14:43:38.469Z,0.40
2023-03-26T14:46:20.606Z,0.27
2023-03-26T14:49:06.253Z,0.40
2023-03-26T14:51:48.446Z,0.30
2023-03-26T14:54:21.818Z,0.70
2023-03-26T14:57:06.345Z,1.53
2023-03-26T15:00:15.786Z,1.10
2023-03-26T15:03:18.883Z,1.00
2023-03-26T15:06:23.382Z,1.30
2023-03-26T15:09:34.103Z,0.77
2023-03-26T15:12:14.004Z,0.50
2023-03-26T15:15:12.724Z,0.87
2023-03-26T15:18:18.036Z,0.50
2023-03-26T15:21:25.548Z,0.50
2023-03-26T15:24:23.615Z,0.43
2023-03-26T15:27:33.400Z,0.40
2023-03-26T15:30:49.150Z,0.90
2023-03-26T15:33:53.301Z,0.60
2023-03-26T15:36:39.138Z,0.50
2023-03-26T15:39:59.458Z,0.77
2023-03-26T15:42:38.441Z,0.70
2023-03-26T15:45:38.257Z,0.43
2023-03-26T15:48:31.368Z,0.77
2023-03-26T15:51:10.062Z,0.60
2023-03-26T15:53:44.718Z,0.60
2023-03-26T15:56:26.987Z,0.70
2023-03-26T15:59:05.225Z,0.73
2023-03-26T16:01:46.796Z,1.30
2023-03-26T16:04:26.373Z,1.27
2023-03-26T16:07:03.363Z,0.87
2023-03-26T16:09:45.919Z,0.90
2023-03-26T16:12:30.897Z,1.20
2023-03-26T16:15:29.524Z,3.10
2023-03-26T16:18:29.271Z,2.17
2023-03-26T16:21:47.309Z,1.40
2023-03-26T16:24:27.849Z,0.90
2023-03-26T16:27:26.232Z,0.70
2023-03-26T16:30:31.698Z,0.60
2023-03-26T16:33:13.941Z,0.90
2023-03-26T16:36:14.349Z,1.10
2023-03-26T16:38:50.164Z,1.00
2023-03-26T16:41:22.085Z,1.00
2023-03-26T16:44:00.360Z,0.73
2023-03-26T16:46:43.283Z,1.17
2023-03-26T16:49:27.397Z,0.80
2023-03-26T16:52:07.552Z,0.70
2023-03-26T16:54:46.150Z,0.97
2023-03-26T16:57:28.285Z,1.07
2023-03-26T17:00:30.032Z,1.10
2023-03-26T17:03:12.921Z,2.77
2023-03-26T17:06:03.686Z,2.60
2023-03-26T17:08:42.072Z,1.70
2023-03-26T17:11:25.213Z,1.23
2023-03-26T17:14:04.360Z,0.80
2023-03-26T17:16:36.746Z,0.87
2023-03-26T17:19:15.065Z,0.77
2023-03-26T17:21:52.345Z,0.90
2023-03-26T17:24:31.262Z,1.97
2023-03-26T17:27:37.572Z,1.67
2023-03-26T17:30:42.983Z,1.30
2023-03-26T17:33:21.403Z,0.90
2023-03-26T17:35:51.048Z,1.10
2023-03-26T17:38:56.724Z,0.80
2023-03-26T17:41:51.491Z,1.00
2023-03-26T17:44:47.013Z,0.87
2023-03-26T17:47:41.306Z,0.60
2023-03-26T17:50:15.514Z,0.70
2023-03-26T17:52:54.573Z,0.60
2023-03-26T17:55:25.764Z,0.77
2023-03-26T17:57:57.436Z,0.90
2023-03-26T18:00:30.137Z,0.50
2023-03-26T18:03:03.850Z,0.50
2023-03-26T18:05:34.158Z,0.50
2023-03-26T18:08:42.665Z,0.73
2023-03-26T18:11:52.753Z,0.77
2023-03-26T18:14:47.688Z,0.63
2023-03-26T18:17:15.737Z,0.70
2023-03-26T18:19:54.037Z,1.23
2023-03-26T18:22:25.633Z,1.20
2023-03-26T18:24:59.798Z,1.93
2023-03-26T18:27:35.959Z,1.50
2023-03-26T18:30:16.164Z,1.10
2023-03-26T18:32:52.502Z,1.10
2023-03-26T18:35:24.082Z,0.70
2023-03-26T18:37:55.786Z,0.80
2023-03-26T18:40:26.216Z,1.50
2023-03-26T18:42:56.984Z,1.50
2023-03-26T18:45:28.877Z,1.13
2023-03-26T18:47:59.159Z,1.07
2023-03-26T18:50:31.001Z,1.00
2023-03-26T18:53:01.029Z,0.93
2023-03-26T18:55:30.439Z,1.37
2023-03-26T18:57:59.157Z,1.00
2023-03-26T19:00:30.487Z,1.10
2023-03-26T19:03:05.390Z,0.80
2023-03-26T19:05:36.524Z,0.83
2023-03-26T19:08:07.542Z,0.80
2023-03-26T19:10:36.018Z,1.23
2023-03-26T19:13:05.274Z,1.20
2023-03-26T19:15:36.845Z,1.00
2023-03-26T19:18:11.846Z,1.50
2023-03-26T19:20:44.743Z,1.33
2023-03-26T19:23:15.652Z,1.20
2023-03-26T19:25:47.486Z,1.20
2023-03-26T19:28:22.990Z,1.60
2023-03-26T19:30:57.442Z,1.50
2023-03-26T19:33:33.879Z,1.43
2023-03-26T19:36:05.922Z,1.50
2023-03-26T19:38:42.687Z,1.77
2023-03-26T19:41:21.588Z,1.60
2023-03-26T19:43:51.089Z,1.47
2023-03-26T19:46:20.575Z,1.40
2023-03-26T19:48:49.885Z,1.50
2023-03-26T19:51:22.441Z,1.47
2023-03-26T19:53:55.260Z,1.03
2023-03-26T19:56:23.839Z,1.20
2023-03-26T19:58:52.328Z,1.17
2023-03-26T20:01:22.776Z,1.30
2023-03-26T20:03:52.867Z,1.40
2023-03-26T20:06:31.027Z,1.50
2023-03-26T20:09:06.479Z,1.50
2023-03-26T20:11:39.092Z,1.23
2023-03-26T20:14:13.952Z,1.30
2023-03-26T20:16:43.849Z,1.50
2023-03-26T20:19:14.086Z,1.70
2023-03-26T20:21:44.809Z,1.20
2023-03-26T20:24:15.640Z,2.00
2023-03-26T20:26:43.772Z,1.67
2023-03-26T20:29:12.900Z,1.60
2023-03-26T20:31:41.954Z,2.47
2023-03-26T20:34:16.886Z,2.20
2023-03-26T20:36:46.760Z,2.00
2023-03-26T20:39:15.353Z,2.57
2023-03-26T20:41:47.293Z,2.17
2023-03-26T20:44:17.301Z,2.10
2023-03-26T20:46:45.999Z,2.43
2023-03-26T20:49:15.044Z,2.47
2023-03-26T20:51:44.668Z,2.77
2023-03-26T20:54:17.833Z,2.73
2023-03-26T20:56:47.614Z,3.07
2023-03-26T20:59:21.983Z,2.73
2023-03-26T21:01:51.254Z,3.47
2023-03-26T21:04:20.118Z,3.37
2023-03-26T21:06:49.059Z,2.77
2023-03-26T21:09:23.695Z,3.13
2023-03-26T21:11:57.221Z,2.80
2023-03-26T21:14:28.851Z,3.30
2023-03-26T21:16:57.824Z,3.00
2023-03-26T21:19:26.936Z,3.17
2023-03-26T21:22:12.695Z,3.40
2023-03-26T21:25:02.173Z,3.23
2023-03-26T21:27:35.939Z,2.47
2023-03-26T21:30:07.864Z,2.97
2023-03-26T21:32:36.582Z,2.73
2023-03-26T21:35:05.574Z,2.70
2023-03-26T21:37:34.242Z,2.63
2023-03-26T21:40:13.916Z,2.20
2023-03-26T21:42:42.882Z,2.40
2023-03-26T21:45:12.050Z,2.00
2023-03-26T21:47:41.198Z,2.00
2023-03-26T21:50:12.484Z,1.77
2023-03-26T21:52:47.178Z,2.20
2023-03-26T21:55:19.069Z,1.43
2023-03-26T21:58:22.820Z,1.20
2023-03-26T22:01:05.882Z,2.10
2023-03-26T22:03:42.084Z,1.50
2023-03-26T22:06:14.514Z,1.83
2023-03-26T22:08:42.896Z,1.60
2023-03-26T22:11:13.482Z,1.30
2023-03-26T22:13:42.302Z,1.60
2023-03-26T22:16:11.729Z,1.37
2023-03-26T22:18:40.071Z,1.00
2023-03-26T22:21:08.218Z,2.07
2023-03-26T22:23:38.319Z,2.00
2023-03-26T22:26:07.209Z,1.13
2023-03-26T22:28:37.150Z,1.23
2023-03-26T22:31:09.403Z,1.30
2023-03-26T22:33:37.550Z,1.30
2023-03-26T22:36:06.135Z,1.50
2023-03-26T22:38:53.779Z,1.00
2023-03-26T22:41:22.511Z,1.27
2023-03-26T22:43:53.012Z,1.30
2023-03-26T22:46:21.005Z,1.40
2023-03-26T22:48:49.480Z,1.47
2023-03-26T22:51:17.865Z,1.23
2023-03-26T22:53:46.348Z,1.10
2023-03-26T22:56:15.831Z,1.27
2023-03-26T22:58:44.142Z,1.20
2023-03-26T23:01:17.884Z,1.23
2023-03-26T23:03:46.548Z,1.07
2023-03-26T23:06:15.320Z,1.43
2023-03-26T23:08:43.347Z,1.33
2023-03-26T23:11:13.673Z,1.30
2023-03-26T23:13:42.391Z,1.50
2023-03-26T23:16:11.485Z,1.60
2023-03-26T23:18:42.188Z,1.20
2023-03-26T23:21:14.734Z,1.30
2023-03-26T23:23:42.866Z,1.47
2023-03-26T23:26:10.937Z,1.90
2023-03-26T23:28:41.024Z,1.00
2023-03-26T23:31:10.765Z,5.80
2023-03-26T23:33:46.564Z,4.13
2023-03-26T23:36:17.968Z,2.20
2023-03-26T23:38:47.803Z,1.90
2023-03-26T23:41:17.270Z,1.27
2023-03-26T23:43:54.549Z,2.20
2023-03-26T23:46:24.343Z,1.57
2023-03-26T23:48:55.106Z,1.20
2023-03-26T23:51:23.948Z,1.30
2023-03-26T23:53:52.652Z,1.50
2023-03-26T23:56:20.989Z,1.10
2023-03-26T23:58:50.707Z,1.30
